Sea Jay — WDE8232 — position and weather

sailwx.info

Track history (hours):
 
Tides and Currents Weather Stations Pressure Air Temp Water Temp Dewpoint Dewpoint Depression Visibility Wind Speed Wind Dir Waves Ship Positions

Sea Jay

Owner: Matheson, James K, Everett, WA. More information available from US FCC via Universal Licensing System and Coast Guard Vessel Documentation Center.

Last reported at 2016-May-06 17:30 UTC. Time now 2016-May-06 22:29 UTC.
Position N 51°05' W 127°42'.

Length 21 m.

Type: Pleasure craft. MMSI: 367403070.

Date/timePositionNaut miles runAvg speedWind from/ knotsBaromVisibWave heightAir tempDewpointWater temp
2016-May-06 17:30N 51°05' W 127°42'9 9.6
2016-May-06 16:32N 50°58' W 127°32'1111.0
2016-May-06 15:32N 50°49' W 127°22'84 1.8
2016-May-04 16:15N 50°13' W 125°23'811.2
2016-May-04 15:31N 50°06' W 125°17'3 2.7
2016-May-04 14:32N 50°04' W 125°13'0 0.0
2016-May-04 13:26N 50°04' W 125°13'0 0.0
2016-May-04 12:32N 50°04' W 125°13'0 0.0
2016-May-04 11:32N 50°04' W 125°13'0 0.0
2016-May-04 10:17N 50°04' W 125°13'0 0.0
2016-May-04 09:32N 50°04' W 125°13'0 0.0
2016-May-04 08:32N 50°04' W 125°13'0 0.0
2016-May-04 07:26N 50°04' W 125°13'0 0.0
2016-May-04 06:32N 50°04' W 125°13'0 0.0
2016-May-04 05:32N 50°04' W 125°13'0 0.0
2016-May-04 04:32N 50°04' W 125°13'0 0.0
2016-May-04 03:26N 50°04' W 125°13'0 0.0
2016-May-04 02:23N 50°04' W 125°13'0 0.0
2016-May-04 01:32N 50°04' W 125°13'0 0.0
2016-May-04 00:26N 50°04' W 125°13'0 0.0
2016-May-03 23:17N 50°04' W 125°13'2 2.9
2016-May-03 22:33N 50°02' W 125°14'1 1.4
2016-May-03 21:33N 50°01' W 125°13'1512.5
2016-May-03 20:22N 49°50' W 124°58'1315.0
2016-May-03 19:29N 49°40' W 124°44'1514.7
2016-May-03 18:29N 49°30' W 124°28'1010.6
2016-May-03 17:32N 49°23' W 124°17'18 5.9
2016-May-03 14:25N 49°11' W 123°56'0 0.0
2016-May-03 13:10N 49°11' W 123°56'0 0.0
2016-May-03 12:32N 49°11' W 123°56'0 0.0
2016-May-03 06:23N 49°11' W 123°56'13 1.1
2016-May-02 18:19N 49°02' W 123°40'15 0.8
2016-May-02 00:31N 48°53' W 123°24'9 8.4
2016-May-01 23:27N 48°45' W 123°17'8 4.0
2016-May-01 21:33N 48°41' W 123°07'10 9.0
2016-May-01 20:28N 48°35' W 122°55'1110.0
2016-May-01 19:20N 48°27' W 122°43'6 8.2
2016-May-01 18:33N 48°24' W 122°35'9 8.1
2016-May-01 17:27N 48°15' W 122°33'11 8.6
2016-May-01 16:13N 48°05' W 122°26'810.2
2016-May-01 15:26N 48°00' W 122°17'2 2.6
2016-May-01 14:32N 48°00' W 122°13'0 0.0
2016-May-01 13:32N 48°00' W 122°13'0 0.0
2016-May-01 12:32N 48°00' W 122°13'0 0.0
2016-May-01 11:32N 48°00' W 122°13'0 0.0
2016-May-01 10:29N 48°00' W 122°13'0 0.0
2016-May-01 09:26N 48°00' W 122°13'0 0.0
2016-May-01 08:29N 48°00' W 122°13'0 0.0
2016-May-01 07:29N 48°00' W 122°13'0 0.0
2016-May-01 06:32N 48°00' W 122°13'0 0.0
2016-May-01 05:32N 48°00' W 122°13'0 0.0
2016-May-01 04:32N 48°00' W 122°13'0 0.0
2016-May-01 03:32N 48°00' W 122°13'0 0.0
2016-May-01 02:32N 48°00' W 122°13'0 0.0
2016-May-01 01:32N 48°00' W 122°13'0 0.0
2016-May-01 00:32N 48°00' W 122°13'0 0.0
2016-Apr-30 23:32N 48°00' W 122°13'0 0.0
2016-Apr-30 22:32N 48°00' W 122°13'0 0.0
2016-Apr-30 21:32N 48°00' W 122°13'0 0.0
2016-Apr-30 20:29N 48°00' W 122°13'0 0.0
2016-Apr-30 19:29N 48°00' W 122°13'0 0.0
2016-Apr-30 18:32N 48°00' W 122°13'0 0.0
2016-Apr-30 17:32N 48°00' W 122°13'0 0.0
2016-Apr-30 16:32N 48°00' W 122°13'0 0.0
2016-Apr-30 15:32N 48°00' W 122°13'0 0.0
2016-Apr-30 14:32N 48°00' W 122°13'0 0.0
2016-Apr-30 13:32N 48°00' W 122°13'0 0.0
2016-Apr-30 12:32N 48°00' W 122°13'0 0.0
2016-Apr-30 11:32N 48°00' W 122°13'0 0.0
2016-Apr-30 10:32N 48°00' W 122°13'0 0.0
2016-Apr-30 09:23N 48°00' W 122°13'0 0.0
2016-Apr-30 08:32N 48°00' W 122°13'0 0.0
2016-Apr-30 07:29N 48°00' W 122°13'0 0.0
2016-Apr-30 06:32N 48°00' W 122°13'0 0.0
2016-Apr-30 05:29N 48°00' W 122°13'0 0.0
2016-Apr-30 04:29N 48°00' W 122°13'0 0.0
2016-Apr-30 03:32N 48°00' W 122°13'0 0.0
2016-Apr-30 02:32N 48°00' W 122°13'0 0.0
2016-Apr-30 01:29N 48°00' W 122°13'0 0.0
2016-Apr-30 00:26N 48°00' W 122°13'0 0.0
2016-Apr-29 23:32N 48°00' W 122°13'0 0.0
2016-Apr-29 22:32N 48°00' W 122°13'0 0.0
2016-Apr-29 21:32N 48°00' W 122°13'0 0.0
2016-Apr-29 20:32N 48°00' W 122°13'0 0.0
2016-Apr-29 19:32N 48°00' W 122°13'0 0.0
2016-Apr-29 18:32N 48°00' W 122°13'0 0.0
2016-Apr-29 17:32N 48°00' W 122°13'0 0.0
2016-Apr-29 16:29N 48°00' W 122°13'0 0.0
2016-Apr-29 15:32N 48°00' W 122°13'0 0.0
2016-Apr-29 14:32N 48°00' W 122°13'0 0.0
2016-Apr-29 13:32N 48°00' W 122°13'0 0.0
2016-Apr-29 12:32N 48°00' W 122°13'0 0.0
2016-Apr-29 11:29N 48°00' W 122°13'0 0.0
2016-Apr-29 10:29N 48°00' W 122°13'0 0.0
2016-Apr-29 09:29N 48°00' W 122°13'0 0.0
2016-Apr-29 08:29N 48°00' W 122°13'0 0.0
2016-Apr-29 07:29N 48°00' W 122°13'0 0.0
2016-Apr-29 06:32N 48°00' W 122°13'0 0.0
2016-Apr-29 05:29N 48°00' W 122°13'0 0.0
2016-Apr-29 04:26N 48°00' W 122°13'0 0.0
2016-Apr-29 03:32N 48°00' W 122°13'  
Track history (hours):
 
Tides and Currents Weather Stations Pressure Air Temp Water Temp Dewpoint Dewpoint Depression Visibility Wind Speed Wind Dir Waves Ship Positions

Sea Jay

Owner: Matheson, James K, Everett, WA. More information available from US FCC via Universal Licensing System and Coast Guard Vessel Documentation Center.

Last reported at 2016-May-06 17:30 UTC. Time now 2016-May-06 22:29 UTC.
Position N 51°05' W 127°42'.

Length 21 m.

Type: Pleasure craft. MMSI: 367403070.

Date/timePositionNaut miles runAvg speedWind from/ knotsBaromVisibWave heightAir tempDewpointWater temp
2016-May-06 17:30N 51°05' W 127°42'9 9.6
2016-May-06 16:32N 50°58' W 127°32'1111.0
2016-May-06 15:32N 50°49' W 127°22'84 1.8
2016-May-04 16:15N 50°13' W 125°23'811.2
2016-May-04 15:31N 50°06' W 125°17'3 2.7
2016-May-04 14:32N 50°04' W 125°13'0 0.0
2016-May-04 13:26N 50°04' W 125°13'0 0.0
2016-May-04 12:32N 50°04' W 125°13'0 0.0
2016-May-04 11:32N 50°04' W 125°13'0 0.0
2016-May-04 10:17N 50°04' W 125°13'0 0.0
2016-May-04 09:32N 50°04' W 125°13'0 0.0
2016-May-04 08:32N 50°04' W 125°13'0 0.0
2016-May-04 07:26N 50°04' W 125°13'0 0.0
2016-May-04 06:32N 50°04' W 125°13'0 0.0
2016-May-04 05:32N 50°04' W 125°13'0 0.0
2016-May-04 04:32N 50°04' W 125°13'0 0.0
2016-May-04 03:26N 50°04' W 125°13'0 0.0
2016-May-04 02:23N 50°04' W 125°13'0 0.0
2016-May-04 01:32N 50°04' W 125°13'0 0.0
2016-May-04 00:26N 50°04' W 125°13'0 0.0
2016-May-03 23:17N 50°04' W 125°13'2 2.9
2016-May-03 22:33N 50°02' W 125°14'1 1.4
2016-May-03 21:33N 50°01' W 125°13'1512.5
2016-May-03 20:22N 49°50' W 124°58'1315.0
2016-May-03 19:29N 49°40' W 124°44'1514.7
2016-May-03 18:29N 49°30' W 124°28'1010.6
2016-May-03 17:32N 49°23' W 124°17'18 5.9
2016-May-03 14:25N 49°11' W 123°56'0 0.0
2016-May-03 13:10N 49°11' W 123°56'0 0.0
2016-May-03 12:32N 49°11' W 123°56'0 0.0
2016-May-03 06:23N 49°11' W 123°56'13 1.1
2016-May-02 18:19N 49°02' W 123°40'15 0.8
2016-May-02 00:31N 48°53' W 123°24'9 8.4
2016-May-01 23:27N 48°45' W 123°17'8 4.0
2016-May-01 21:33N 48°41' W 123°07'10 9.0
2016-May-01 20:28N 48°35' W 122°55'1110.0
2016-May-01 19:20N 48°27' W 122°43'6 8.2
2016-May-01 18:33N 48°24' W 122°35'9 8.1
2016-May-01 17:27N 48°15' W 122°33'11 8.6
2016-May-01 16:13N 48°05' W 122°26'810.2
2016-May-01 15:26N 48°00' W 122°17'2 2.6
2016-May-01 14:32N 48°00' W 122°13'0 0.0
2016-May-01 13:32N 48°00' W 122°13'0 0.0
2016-May-01 12:32N 48°00' W 122°13'0 0.0
2016-May-01 11:32N 48°00' W 122°13'0 0.0
2016-May-01 10:29N 48°00' W 122°13'0 0.0
2016-May-01 09:26N 48°00' W 122°13'0 0.0
2016-May-01 08:29N 48°00' W 122°13'0 0.0
2016-May-01 07:29N 48°00' W 122°13'0 0.0
2016-May-01 06:32N 48°00' W 122°13'0 0.0
2016-May-01 05:32N 48°00' W 122°13'0 0.0
2016-May-01 04:32N 48°00' W 122°13'0 0.0
2016-May-01 03:32N 48°00' W 122°13'0 0.0
2016-May-01 02:32N 48°00' W 122°13'0 0.0
2016-May-01 01:32N 48°00' W 122°13'0 0.0
2016-May-01 00:32N 48°00' W 122°13'0 0.0
2016-Apr-30 23:32N 48°00' W 122°13'0 0.0
2016-Apr-30 22:32N 48°00' W 122°13'0 0.0
2016-Apr-30 21:32N 48°00' W 122°13'0 0.0
2016-Apr-30 20:29N 48°00' W 122°13'0 0.0
2016-Apr-30 19:29N 48°00' W 122°13'0 0.0
2016-Apr-30 18:32N 48°00' W 122°13'0 0.0
2016-Apr-30 17:32N 48°00' W 122°13'0 0.0
2016-Apr-30 16:32N 48°00' W 122°13'0 0.0
2016-Apr-30 15:32N 48°00' W 122°13'0 0.0
2016-Apr-30 14:32N 48°00' W 122°13'0 0.0
2016-Apr-30 13:32N 48°00' W 122°13'0 0.0
2016-Apr-30 12:32N 48°00' W 122°13'0 0.0
2016-Apr-30 11:32N 48°00' W 122°13'0 0.0
2016-Apr-30 10:32N 48°00' W 122°13'0 0.0
2016-Apr-30 09:23N 48°00' W 122°13'0 0.0
2016-Apr-30 08:32N 48°00' W 122°13'0 0.0
2016-Apr-30 07:29N 48°00' W 122°13'0 0.0
2016-Apr-30 06:32N 48°00' W 122°13'0 0.0
2016-Apr-30 05:29N 48°00' W 122°13'0 0.0
2016-Apr-30 04:29N 48°00' W 122°13'0 0.0
2016-Apr-30 03:32N 48°00' W 122°13'0 0.0
2016-Apr-30 02:32N 48°00' W 122°13'0 0.0
2016-Apr-30 01:29N 48°00' W 122°13'0 0.0
2016-Apr-30 00:26N 48°00' W 122°13'0 0.0
2016-Apr-29 23:32N 48°00' W 122°13'0 0.0
2016-Apr-29 22:32N 48°00' W 122°13'0 0.0
2016-Apr-29 21:32N 48°00' W 122°13'0 0.0
2016-Apr-29 20:32N 48°00' W 122°13'0 0.0
2016-Apr-29 19:32N 48°00' W 122°13'0 0.0
2016-Apr-29 18:32N 48°00' W 122°13'0 0.0
2016-Apr-29 17:32N 48°00' W 122°13'0 0.0
2016-Apr-29 16:29N 48°00' W 122°13'0 0.0
2016-Apr-29 15:32N 48°00' W 122°13'0 0.0
2016-Apr-29 14:32N 48°00' W 122°13'0 0.0
2016-Apr-29 13:32N 48°00' W 122°13'0 0.0
2016-Apr-29 12:32N 48°00' W 122°13'0 0.0
2016-Apr-29 11:29N 48°00' W 122°13'0 0.0
2016-Apr-29 10:29N 48°00' W 122°13'0 0.0
2016-Apr-29 09:29N 48°00' W 122°13'0 0.0
2016-Apr-29 08:29N 48°00' W 122°13'0 0.0
2016-Apr-29 07:29N 48°00' W 122°13'0 0.0
2016-Apr-29 06:32N 48°00' W 122°13'0 0.0
2016-Apr-29 05:29N 48°00' W 122°13'0 0.0
2016-Apr-29 04:26N 48°00' W 122°13'0 0.0
2016-Apr-29 03:32N 48°00' W 122°13'  

Dump ship's entire track history